Terminal Aerodrome Forecast
Issued by NWS Central Illinois

Home | Current Version | Previous Version | Text Only | Print | Product List | Glossary On
Versions: 1 2 3 4 5 6 7 8 9 10 11 12 13 14 15 16 17 18 19 20
000
FTUS43 KILX 221500 AAB
TAFSPI
TAF AMD
KSPI 221504Z 2215/2312 12014KT 2SM -RA BR SCT008 OVC035
     FM221600 13014KT 2SM -RA BR OVC008
     FM221800 15014G19KT 1 1/2SM -RA BR OVC004
     FM230200 13014KT 4SM -RA BR OVC006=

USA.gov is the U.S. government's official web portal to all federal, state and local government web resources and services.